createdAt,value
2022-10-04T00:01:27.534Z,97790.06
2022-10-04T00:04:08.954Z,97804.25
2022-10-04T00:06:38.288Z,97654.63
2022-10-04T00:09:12.065Z,97822.38
2022-10-04T00:11:44.845Z,97808.72
2022-10-04T00:14:20.886Z,97810.34
2022-10-04T00:16:49.452Z,97664.53
2022-10-04T00:19:16.152Z,97831.78
2022-10-04T00:21:56.398Z,97813.88
2022-10-04T00:24:31.605Z,97779.88
2022-10-04T00:27:24.734Z,97828.59
2022-10-04T00:30:03.936Z,97821.03
2022-10-04T00:32:41.764Z,97823.94
2022-10-04T00:35:27.311Z,97819.16
2022-10-04T00:38:15.733Z,97839.06
2022-10-04T00:40:54.338Z,97814.03
2022-10-04T00:43:37.794Z,97625.63
2022-10-04T00:46:14.028Z,97781.28
2022-10-04T00:48:46.624Z,97816.22
2022-10-04T00:51:22.659Z,97851.59
2022-10-04T00:54:05.883Z,97851.59
2022-10-04T00:56:41.036Z,97657.56
2022-10-04T00:59:43.413Z,97844.31
2022-10-04T01:02:16.434Z,97838.44
2022-10-04T01:04:49.960Z,97660.81
2022-10-04T01:07:28.852Z,97702.16
2022-10-04T01:10:01.727Z,97749.47
2022-10-04T01:12:40.792Z,97847.75
2022-10-04T01:15:35.462Z,97827.19
2022-10-04T01:18:15.218Z,97655.03
2022-10-04T01:20:57.036Z,97853.88
2022-10-04T01:23:40.638Z,97829.28
2022-10-04T01:26:30.009Z,97835.97
2022-10-04T01:29:00.876Z,97657.47
2022-10-04T01:31:29.433Z,97684.78
2022-10-04T01:33:57.074Z,97644.34
2022-10-04T01:36:23.988Z,97776.06
2022-10-04T01:38:51.684Z,97850.75
2022-10-04T01:41:25.451Z,97652.59
2022-10-04T01:43:58.659Z,97688.44
2022-10-04T01:46:36.436Z,97656.00
2022-10-04T01:49:08.139Z,97824.34
2022-10-04T01:51:42.248Z,97801.03
2022-10-04T01:54:15.045Z,97805.94
2022-10-04T01:56:46.884Z,97838.75
2022-10-04T01:59:19.798Z,97793.59
2022-10-04T02:02:04.710Z,97671.91
2022-10-04T02:04:35.636Z,97855.25
2022-10-04T02:07:04.069Z,97794.19
2022-10-04T02:09:38.663Z,97839.22
2022-10-04T02:12:06.629Z,97742.31
2022-10-04T02:14:36.881Z,97838.53
2022-10-04T02:17:10.635Z,97777.53
2022-10-04T02:19:42.309Z,97842.00
2022-10-04T02:22:11.484Z,97875.16
2022-10-04T02:24:43.180Z,97710.34
2022-10-04T02:27:10.233Z,97827.56
2022-10-04T02:29:37.094Z,97832.41
2022-10-04T02:32:24.999Z,97810.81
2022-10-04T02:34:54.894Z,97663.13
2022-10-04T02:37:27.277Z,97697.53
2022-10-04T02:40:03.299Z,97844.44
2022-10-04T02:43:14.912Z,97851.91
2022-10-04T02:45:53.096Z,97841.44
2022-10-04T02:48:26.099Z,97858.75
2022-10-04T02:50:56.018Z,97718.00
2022-10-04T02:53:38.324Z,97863.13
2022-10-04T02:56:05.833Z,97797.56
2022-10-04T02:58:32.879Z,97829.72
2022-10-04T03:01:00.956Z,97740.38
2022-10-04T03:03:47.557Z,97822.34
2022-10-04T03:06:19.181Z,97701.59
2022-10-04T03:08:51.359Z,97665.72
2022-10-04T03:11:21.817Z,97854.72
2022-10-04T03:13:56.542Z,97781.34
2022-10-04T03:16:25.033Z,97665.09
2022-10-04T03:18:56.710Z,97784.41
2022-10-04T03:21:25.355Z,97666.13
2022-10-04T03:23:53.615Z,97699.47
2022-10-04T03:26:38.704Z,97667.25
2022-10-04T03:29:10.244Z,97836.69
2022-10-04T03:31:43.133Z,97803.84
2022-10-04T03:34:16.284Z,97669.41
2022-10-04T03:36:46.353Z,97859.56
2022-10-04T03:39:27.326Z,97813.84
2022-10-04T03:41:54.623Z,97807.25
2022-10-04T03:44:23.306Z,97793.16
2022-10-04T03:46:50.137Z,97719.44
2022-10-04T03:49:26.212Z,97691.44
2022-10-04T03:51:53.453Z,97802.19
2022-10-04T03:54:25.584Z,97751.47
2022-10-04T03:56:54.838Z,97824.47
2022-10-04T03:59:24.923Z,97856.44
2022-10-04T04:02:12.466Z,97889.06
2022-10-04T04:04:52.668Z,97862.13
2022-10-04T04:07:34.595Z,97786.31
2022-10-04T04:10:18.459Z,97827.84
2022-10-04T04:13:09.417Z,97854.59
2022-10-04T04:15:36.578Z,97768.47
2022-10-04T04:18:07.840Z,97717.69
2022-10-04T04:20:38.418Z,97644.44
2022-10-04T04:23:12.592Z,97825.41
2022-10-04T04:25:42.187Z,97685.28
2022-10-04T04:28:52.074Z,97854.88
2022-10-04T04:31:21.102Z,97682.69
2022-10-04T04:34:00.529Z,97832.72
2022-10-04T04:36:31.009Z,97877.03
2022-10-04T04:39:44.767Z,97874.13
2022-10-04T04:42:19.422Z,97733.97
2022-10-04T04:45:17.417Z,97872.94
2022-10-04T04:47:53.338Z,97865.94
2022-10-04T04:50:23.823Z,97764.09
2022-10-04T04:52:58.816Z,97452.56
2022-10-04T04:56:03.254Z,97886.41
2022-10-04T04:58:45.945Z,97756.06
2022-10-04T05:01:24.205Z,97876.03
2022-10-04T05:04:23.853Z,97897.09
2022-10-04T05:07:16.358Z,97857.16
2022-10-04T05:09:43.383Z,97743.38
2022-10-04T05:12:17.008Z,97799.13
2022-10-04T05:14:50.763Z,97909.03
2022-10-04T05:17:24.907Z,97921.84
2022-10-04T05:19:57.811Z,97871.91
2022-10-04T05:22:47.785Z,97747.72
2022-10-04T05:25:26.579Z,97914.00
2022-10-04T05:27:54.681Z,97881.72
2022-10-04T05:30:57.766Z,97923.75
2022-10-04T05:33:36.711Z,97767.69
2022-10-04T05:36:13.763Z,97941.00
2022-10-04T05:38:46.668Z,97946.53
2022-10-04T05:41:42.380Z,97925.84
2022-10-04T05:44:27.559Z,97889.34
2022-10-04T05:47:01.515Z,97922.28
2022-10-04T05:49:34.941Z,97935.44
2022-10-04T05:52:04.036Z,97906.22
2022-10-04T05:54:35.694Z,97908.13
2022-10-04T05:57:25.853Z,97771.94
2022-10-04T06:00:03.939Z,97772.41
2022-10-04T06:02:57.857Z,97973.66
2022-10-04T06:05:29.180Z,97953.28
2022-10-04T06:08:33.758Z,97952.09
2022-10-04T06:11:22.603Z,97956.50
2022-10-04T06:14:22.560Z,97440.59
2022-10-04T06:17:14.685Z,97972.28
2022-10-04T06:19:51.236Z,97774.94
2022-10-04T06:22:20.396Z,97845.84
2022-10-04T06:24:58.947Z,97937.81
2022-10-04T06:27:54.625Z,97790.38
2022-10-04T06:30:21.912Z,97943.97
2022-10-04T06:33:45.951Z,97966.00
2022-10-04T06:36:29.517Z,97981.16
2022-10-04T06:39:20.935Z,97972.34
2022-10-04T06:42:35.370Z,97970.72
2022-10-04T06:45:30.268Z,97950.25
2022-10-04T06:48:06.389Z,98003.97
2022-10-04T06:50:49.951Z,98002.97
2022-10-04T06:53:26.809Z,98014.81
2022-10-04T06:56:12.177Z,97998.19
2022-10-04T06:58:54.154Z,98002.41
2022-10-04T07:01:29.417Z,97826.75
2022-10-04T07:04:21.964Z,97978.59
2022-10-04T07:07:20.366Z,98009.88
2022-10-04T07:09:48.872Z,97951.56
2022-10-04T07:12:17.927Z,98032.94
2022-10-04T07:14:56.154Z,97949.31
2022-10-04T07:17:37.860Z,97959.69
2022-10-04T07:20:06.763Z,97865.13
2022-10-04T07:22:47.626Z,98044.34
2022-10-04T07:25:28.983Z,98046.53
2022-10-04T07:28:29.437Z,98007.88
2022-10-04T07:31:03.747Z,98075.75
2022-10-04T07:33:35.800Z,98034.13
2022-10-04T07:36:24.403Z,98041.16
2022-10-04T07:39:00.186Z,98031.97
2022-10-04T07:41:33.940Z,98043.06
2022-10-04T07:44:16.102Z,97883.09
2022-10-04T07:46:43.046Z,98055.31
2022-10-04T07:49:21.717Z,98052.69
2022-10-04T07:52:10.615Z,98081.56
2022-10-04T07:54:56.362Z,98078.06
2022-10-04T07:58:08.362Z,98063.00
2022-10-04T08:01:24.881Z,98066.66
2022-10-04T08:04:18.750Z,98076.31
2022-10-04T08:06:59.365Z,98044.06
2022-10-04T08:10:08.334Z,98026.09
2022-10-04T08:12:58.484Z,98034.88
2022-10-04T08:15:36.051Z,98116.63
2022-10-04T08:18:10.189Z,98102.31
2022-10-04T08:21:01.852Z,98065.22
2022-10-04T08:24:02.818Z,98084.78
2022-10-04T08:26:53.682Z,98089.44
2022-10-04T08:29:43.790Z,97992.97
2022-10-04T08:32:29.612Z,98098.91
2022-10-04T08:35:21.361Z,98097.16
2022-10-04T08:38:07.073Z,98097.28
2022-10-04T08:41:01.981Z,98104.03
2022-10-04T08:43:43.139Z,97960.56
2022-10-04T08:46:10.104Z,98131.53
2022-10-04T08:49:18.966Z,98107.25
2022-10-04T08:52:28.674Z,98117.94
2022-10-04T08:55:29.063Z,98084.97
2022-10-04T08:58:34.255Z,98125.09
2022-10-04T09:01:39.785Z,98160.34
2022-10-04T09:04:33.745Z,98152.28
2022-10-04T09:07:28.654Z,98168.66
2022-10-04T09:10:14.391Z,98147.34
2022-10-04T09:13:22.218Z,98154.78
2022-10-04T09:15:53.229Z,98163.69
2022-10-04T09:18:48.409Z,98184.00
2022-10-04T09:21:29.017Z,98036.88
2022-10-04T09:24:17.730Z,98160.19
2022-10-04T09:26:54.250Z,98188.25
2022-10-04T09:29:37.537Z,97988.72
2022-10-04T09:32:32.702Z,98092.69
2022-10-04T09:35:18.701Z,98151.69
2022-10-04T09:38:23.286Z,98154.44
2022-10-04T09:41:01.089Z,98082.13
2022-10-04T09:43:28.415Z,98170.34
2022-10-04T09:46:37.517Z,98184.66
2022-10-04T09:49:27.558Z,98174.09
2022-10-04T09:52:05.857Z,98024.63
2022-10-04T09:54:59.212Z,98156.91
2022-10-04T09:57:29.808Z,98160.38
2022-10-04T10:00:26.924Z,98192.53
2022-10-04T10:03:17.414Z,98027.97
2022-10-04T10:06:14.741Z,98122.41
2022-10-04T10:09:01.999Z,98187.50
2022-10-04T10:12:23.107Z,98214.16
2022-10-04T10:15:13.322Z,98222.91
2022-10-04T10:17:48.497Z,98139.91
2022-10-04T10:20:23.091Z,98216.44
2022-10-04T10:23:12.462Z,98039.47
2022-10-04T10:26:33.151Z,98202.06
2022-10-04T10:29:32.541Z,98217.88
2022-10-04T10:32:23.465Z,98070.88
2022-10-04T10:34:59.806Z,98205.19
2022-10-04T10:37:39.567Z,98156.22
2022-10-04T10:40:41.118Z,98201.50
2022-10-04T10:43:26.996Z,98202.94
2022-10-04T10:45:55.521Z,98223.00
2022-10-04T10:48:22.505Z,98212.63
2022-10-04T10:51:23.162Z,98205.03
2022-10-04T10:54:30.383Z,98210.09
2022-10-04T10:57:07.063Z,98056.13
2022-10-04T11:00:12.254Z,98216.97
2022-10-04T11:02:50.016Z,98248.78
2022-10-04T11:06:01.623Z,98218.63
2022-10-04T11:08:57.091Z,98212.06
2022-10-04T11:12:01.103Z,98217.47
2022-10-04T11:14:53.593Z,98238.28
2022-10-04T11:17:38.812Z,98193.97
2022-10-04T11:20:24.389Z,98224.06
2022-10-04T11:23:07.493Z,98223.59
2022-10-04T11:25:52.052Z,98236.03
2022-10-04T11:28:46.743Z,98225.22
2022-10-04T11:31:32.654Z,98244.94
2022-10-04T11:34:18.421Z,98249.19
2022-10-04T11:37:12.293Z,98216.56
2022-10-04T11:39:57.959Z,98236.19
2022-10-04T11:42:53.083Z,98206.28
2022-10-04T11:45:34.072Z,98104.78
2022-10-04T11:48:15.999Z,98171.00
2022-10-04T11:51:03.239Z,98254.84
2022-10-04T11:53:58.721Z,98258.41
2022-10-04T11:56:45.634Z,98260.03
2022-10-04T11:59:28.535Z,98263.09
2022-10-04T12:02:42.185Z,98263.53
2022-10-04T12:05:18.355Z,98290.47
2022-10-04T12:08:02.076Z,98248.34
2022-10-04T12:10:36.207Z,98234.00
2022-10-04T12:13:21.537Z,98273.63
2022-10-04T12:16:06.945Z,98069.91
2022-10-04T12:18:52.171Z,98106.28
2022-10-04T12:21:36.801Z,98101.75
2022-10-04T12:24:42.163Z,98257.44
2022-10-04T12:27:13.634Z,98256.56
2022-10-04T12:30:01.055Z,98277.91
2022-10-04T12:32:43.221Z,98261.63
2022-10-04T12:35:41.041Z,98275.97
2022-10-04T12:38:31.865Z,98291.03
2022-10-04T12:41:17.488Z,98279.84
2022-10-04T12:44:32.196Z,98281.63
2022-10-04T12:47:29.773Z,98234.00
2022-10-04T12:50:22.343Z,98287.47
2022-10-04T12:53:32.186Z,98286.41
2022-10-04T12:56:08.222Z,98289.81
2022-10-04T12:58:58.573Z,98290.84
2022-10-04T13:01:37.678Z,98318.38
2022-10-04T13:04:14.886Z,98302.91
2022-10-04T13:07:08.266Z,98256.41
2022-10-04T13:10:05.414Z,98340.81
2022-10-04T13:12:47.104Z,98344.91
2022-10-04T13:18:45.101Z,98323.81
2022-10-04T13:21:36.616Z,98231.47
2022-10-04T13:24:53.930Z,98344.91
2022-10-04T13:27:59.491Z,98324.66
2022-10-04T13:30:35.905Z,98311.25
2022-10-04T13:33:06.031Z,98325.25
2022-10-04T13:36:08.669Z,98344.88
2022-10-04T13:38:38.069Z,98284.94
2022-10-04T13:41:04.833Z,98346.34
2022-10-04T13:43:56.613Z,98345.47
2022-10-04T13:46:41.817Z,98373.88
2022-10-04T13:49:49.145Z,98381.81
2022-10-04T13:52:41.216Z,98380.50
2022-10-04T13:55:26.733Z,98361.59
2022-10-04T13:57:58.337Z,98365.72
2022-10-04T14:00:53.051Z,98371.72
2022-10-04T14:03:33.846Z,98173.19
2022-10-04T14:06:19.459Z,98372.47
2022-10-04T14:09:01.192Z,98396.16
2022-10-04T14:11:54.481Z,98222.47
2022-10-04T14:14:21.326Z,98371.13
2022-10-04T14:17:32.731Z,98372.16
2022-10-04T14:20:08.453Z,98395.31
2022-10-04T14:23:12.329Z,98397.34
2022-10-04T14:25:58.479Z,98407.03
2022-10-04T14:28:53.317Z,98408.22
2022-10-04T14:31:51.069Z,98410.84
2022-10-04T14:34:55.265Z,98428.84
2022-10-04T14:38:00.532Z,98414.94
2022-10-04T14:40:37.468Z,98268.09
2022-10-04T14:43:41.739Z,98388.47
2022-10-04T14:46:56.051Z,98430.16
2022-10-04T14:50:00.895Z,98439.84
2022-10-04T14:52:36.100Z,98452.13
2022-10-04T14:55:38.448Z,98448.03
2022-10-04T14:58:23.947Z,98335.34
2022-10-04T15:01:12.518Z,98441.00
2022-10-04T15:03:55.349Z,98465.88
2022-10-04T15:06:49.151Z,98464.44
2022-10-04T15:09:25.281Z,98471.16
2022-10-04T15:14:58.510Z,98467.50
2022-10-04T15:17:38.074Z,98369.16
2022-10-04T15:20:20.183Z,98306.75
2022-10-04T15:22:54.257Z,98377.47
2022-10-04T15:25:43.082Z,98465.47
2022-10-04T15:28:52.487Z,98518.16
2022-10-04T15:31:39.146Z,98429.56
2022-10-04T15:34:47.589Z,98481.72
2022-10-04T15:37:25.360Z,98477.00
2022-10-04T15:40:23.350Z,98489.16
2022-10-04T15:43:10.260Z,98355.22
2022-10-04T15:46:03.605Z,98332.13
2022-10-04T15:49:08.339Z,98522.72
2022-10-04T15:51:49.512Z,98515.50
2022-10-04T15:54:40.197Z,98535.13
2022-10-04T15:57:38.916Z,98514.03
2022-10-04T16:00:41.130Z,98447.56
2022-10-04T16:03:50.464Z,98522.91
2022-10-04T16:06:25.299Z,98526.69
2022-10-04T16:09:11.015Z,98529.19
2022-10-04T16:11:50.800Z,98525.56
2022-10-04T16:14:52.418Z,98473.91
2022-10-04T16:17:22.759Z,98536.84
2022-10-04T16:20:00.080Z,98538.16
2022-10-04T16:22:30.436Z,98547.94
2022-10-04T16:25:25.769Z,98542.41
2022-10-04T16:27:56.041Z,98543.88
2022-10-04T16:30:28.847Z,98570.38
2022-10-04T16:32:58.851Z,98552.94
2022-10-04T16:35:35.010Z,98559.38
2022-10-04T16:38:14.449Z,98555.31
2022-10-04T16:40:53.204Z,98579.97
2022-10-04T16:43:20.400Z,98567.22
2022-10-04T16:46:06.094Z,98574.09
2022-10-04T16:48:47.060Z,98510.25
2022-10-04T16:51:16.846Z,98579.63
2022-10-04T16:54:04.643Z,98484.75
2022-10-04T16:56:57.384Z,98587.41
2022-10-04T16:59:36.824Z,98583.75
2022-10-04T17:02:28.350Z,98604.81
2022-10-04T17:05:22.463Z,98585.19
2022-10-04T17:07:58.947Z,98433.72
2022-10-04T17:11:27.854Z,98584.06
2022-10-04T17:14:00.209Z,98411.88
2022-10-04T17:16:38.722Z,98580.50
2022-10-04T17:19:16.175Z,98594.13
2022-10-04T17:21:46.206Z,98594.13
2022-10-04T17:24:22.671Z,98566.63
2022-10-04T17:27:18.979Z,98593.03
2022-10-04T17:30:04.163Z,98602.84
2022-10-04T17:33:07.607Z,98554.56
2022-10-04T17:36:14.135Z,98623.75
2022-10-04T17:39:07.569Z,98536.13
2022-10-04T17:42:09.330Z,98621.16
2022-10-04T17:44:49.432Z,98451.56
2022-10-04T17:48:04.052Z,98654.31
2022-10-04T17:51:04.902Z,98473.66
2022-10-04T17:53:55.548Z,98615.75
2022-10-04T17:56:43.171Z,98624.09
2022-10-04T17:59:16.186Z,98490.31
2022-10-04T18:01:49.042Z,98640.94
2022-10-04T18:04:30.534Z,98634.47
2022-10-04T18:07:08.904Z,98506.13
2022-10-04T18:09:45.616Z,98563.88
2022-10-04T18:12:31.506Z,98529.28
2022-10-04T18:15:07.570Z,98480.44
2022-10-04T18:17:40.603Z,98646.78
2022-10-04T18:20:29.393Z,98649.44
2022-10-04T18:23:02.661Z,98479.50
2022-10-04T18:25:32.168Z,98505.63
2022-10-04T18:28:13.324Z,98536.13
2022-10-04T18:30:46.427Z,98670.06
2022-10-04T18:33:26.156Z,98507.06
2022-10-04T18:36:12.463Z,98691.13
2022-10-04T18:38:42.864Z,98682.41
2022-10-04T18:41:20.312Z,98636.97
2022-10-04T18:43:52.347Z,98557.78
2022-10-04T18:46:22.892Z,98691.88
2022-10-04T18:49:01.662Z,98627.66
2022-10-04T18:51:51.351Z,98701.19
2022-10-04T18:54:33.971Z,98710.06
2022-10-04T18:57:16.668Z,98711.94
2022-10-04T19:00:20.367Z,98733.25
2022-10-04T19:03:15.922Z,98713.81
2022-10-04T19:06:15.286Z,98585.94
2022-10-04T19:08:53.332Z,98737.56
2022-10-04T19:11:24.126Z,98724.25
2022-10-04T19:14:08.252Z,98688.59
2022-10-04T19:16:41.679Z,98743.91
2022-10-04T19:19:17.644Z,98700.78
2022-10-04T19:21:45.233Z,98557.34
2022-10-04T19:24:57.891Z,98722.81
2022-10-04T19:27:30.426Z,98549.59
2022-10-04T19:30:04.788Z,98692.84
2022-10-04T19:32:57.678Z,98728.38
2022-10-04T19:35:49.813Z,98732.47
2022-10-04T19:38:41.866Z,98736.53
2022-10-04T19:41:15.261Z,98751.72
2022-10-04T19:44:05.844Z,98668.16
2022-10-04T19:46:38.740Z,98649.41
2022-10-04T19:49:21.367Z,98749.13
2022-10-04T19:51:54.481Z,98599.75
2022-10-04T19:54:35.693Z,98740.22
2022-10-04T19:57:10.225Z,98631.38
2022-10-04T19:59:40.903Z,98754.66
2022-10-04T20:02:11.958Z,98762.28
2022-10-04T20:04:40.200Z,98694.31
2022-10-04T20:07:27.187Z,98765.25
2022-10-04T20:10:06.464Z,98598.19
2022-10-04T20:12:42.060Z,98729.97
2022-10-04T20:15:13.447Z,98791.75
2022-10-04T20:17:42.399Z,98791.00
2022-10-04T20:20:15.778Z,98763.63
2022-10-04T20:22:55.841Z,98777.47
2022-10-04T20:25:45.561Z,98770.81
2022-10-04T20:28:32.494Z,98771.91
2022-10-04T20:31:02.001Z,98771.75
2022-10-04T20:33:35.111Z,98783.19
2022-10-04T20:36:02.491Z,98785.78
2022-10-04T20:38:54.281Z,98788.38
2022-10-04T20:41:50.342Z,98795.25
2022-10-04T20:44:40.217Z,98795.06
2022-10-04T20:47:39.615Z,98660.69
2022-10-04T20:50:20.231Z,98653.91
2022-10-04T20:52:53.283Z,98766.47
2022-10-04T20:55:28.059Z,98631.34
2022-10-04T20:58:01.018Z,98801.84
2022-10-04T21:00:33.676Z,98832.53
2022-10-04T21:03:09.830Z,98785.66
2022-10-04T21:05:37.074Z,98651.97
2022-10-04T21:08:21.588Z,98830.09
2022-10-04T21:11:09.034Z,98748.16
2022-10-04T21:13:52.872Z,98839.53
2022-10-04T21:16:39.667Z,98835.09
2022-10-04T21:19:43.020Z,98846.19
2022-10-04T21:22:15.902Z,98836.59
2022-10-04T21:24:48.906Z,98838.06
2022-10-04T21:27:30.478Z,98740.59
2022-10-04T21:29:59.025Z,98792.59
2022-10-04T21:32:27.085Z,98865.28
2022-10-04T21:34:54.924Z,98774.91
2022-10-04T21:37:22.368Z,98678.38
2022-10-04T21:39:49.209Z,98661.28
2022-10-04T21:42:16.189Z,98848.25
2022-10-04T21:44:43.469Z,98881.38
2022-10-04T21:47:11.167Z,98832.81
2022-10-04T21:49:37.937Z,98714.38
2022-10-04T21:52:05.030Z,98692.25
2022-10-04T21:54:32.026Z,98671.97
2022-10-04T21:56:59.292Z,98856.84
2022-10-04T21:59:26.308Z,98775.91
2022-10-04T22:01:53.248Z,98874.00
2022-10-04T22:04:20.185Z,98734.66
2022-10-04T22:06:47.525Z,98868.81
2022-10-04T22:09:14.598Z,98683.44
2022-10-04T22:11:41.531Z,98771.53
2022-10-04T22:14:08.457Z,98682.50
2022-10-04T22:16:35.356Z,98727.84
2022-10-04T22:19:02.369Z,98867.75
2022-10-04T22:21:29.613Z,98879.19
2022-10-04T22:23:56.725Z,98873.63
2022-10-04T22:26:26.289Z,98814.69
2022-10-04T22:28:55.544Z,98878.84
2022-10-04T22:31:27.594Z,98779.78
2022-10-04T22:33:55.201Z,98743.31
2022-10-04T22:36:50.187Z,98882.13
2022-10-04T22:39:19.592Z,98877.34
2022-10-04T22:41:53.466Z,98885.44
2022-10-04T22:44:29.577Z,98714.03
2022-10-04T22:47:00.089Z,98897.63
2022-10-04T22:49:31.350Z,98682.91
2022-10-04T22:52:00.662Z,98780.00
2022-10-04T22:54:32.120Z,98833.50
2022-10-04T22:56:59.831Z,98904.84
2022-10-04T22:59:39.400Z,98870.75
2022-10-04T23:02:12.999Z,98886.22
2022-10-04T23:04:41.440Z,98923.13
2022-10-04T23:07:08.429Z,98735.44
2022-10-04T23:09:35.189Z,98932.38
2022-10-04T23:12:02.632Z,98930.34
2022-10-04T23:14:29.467Z,98784.28
2022-10-04T23:16:56.306Z,98909.88
2022-10-04T23:19:23.229Z,98832.94
2022-10-04T23:21:50.234Z,98911.34
2022-10-04T23:24:19.316Z,98950.84
2022-10-04T23:26:55.251Z,98938.47
2022-10-04T23:29:25.842Z,98969.16
2022-10-04T23:31:53.407Z,98967.88
2022-10-04T23:34:28.890Z,98805.50
2022-10-04T23:36:57.026Z,98952.13
2022-10-04T23:39:28.619Z,98988.19
2022-10-04T23:41:56.798Z,98977.81
2022-10-04T23:44:27.136Z,98816.56
2022-10-04T23:46:54.018Z,98955.31
2022-10-04T23:49:22.798Z,98961.59
2022-10-04T23:51:58.159Z,98806.81
2022-10-04T23:54:26.373Z,98806.63
2022-10-04T23:56:53.526Z,98967.13
2022-10-04T23:59:23.921Z,98963.47
